createdAt,value
2022-08-26T00:02:33.806Z,11.2
2022-08-26T00:08:24.904Z,10.2
2022-08-26T00:14:18.393Z,12.3
2022-08-26T00:20:10.789Z,10.7
2022-08-26T00:26:05.747Z,13
2022-08-26T00:32:00.223Z,11.9
2022-08-26T00:39:05.001Z,11.3
2022-08-26T00:44:59.240Z,11.9
2022-08-26T00:50:50.402Z,11.7
2022-08-26T00:56:42.580Z,12.5
2022-08-26T01:02:39.077Z,14.8
2022-08-26T01:08:39.095Z,13.6
2022-08-26T01:14:30.462Z,14.7
2022-08-26T01:20:22.296Z,16.4
2022-08-26T01:26:25.764Z,30
2022-08-26T01:32:16.326Z,33.9
2022-08-26T01:38:08.587Z,42.4
2022-08-26T01:44:03.886Z,38.7
2022-08-26T01:49:58.466Z,39.1
2022-08-26T01:55:52.235Z,38.3
2022-08-26T02:01:44.778Z,31.9
2022-08-26T02:07:37.846Z,42.2
2022-08-26T02:13:30.480Z,53.1
2022-08-26T02:19:25.235Z,45.4
2022-08-26T02:25:18.773Z,55.1
2022-08-26T02:31:18.069Z,56.9
2022-08-26T02:37:15.249Z,59.3
2022-08-26T02:43:15.126Z,55.4
2022-08-26T02:49:15.964Z,61.8
2022-08-26T02:55:08.820Z,61.3
2022-08-26T03:01:00.022Z,63.1
2022-08-26T03:06:58.646Z,70.8
2022-08-26T03:12:55.253Z,68.4
2022-08-26T03:18:55.638Z,69.9
2022-08-26T03:24:51.605Z,66.7
2022-08-26T03:30:48.152Z,66.9
2022-08-26T03:36:40.869Z,71
2022-08-26T03:42:33.129Z,76.2
2022-08-26T03:48:24.547Z,68.9
2022-08-26T03:54:16.704Z,68.4
2022-08-26T04:00:09.382Z,69.6
2022-08-26T04:06:02.193Z,67.4
2022-08-26T04:11:55.465Z,68.3
2022-08-26T04:17:47.773Z,77.2
2022-08-26T04:23:52.491Z,69
2022-08-26T04:29:43.461Z,76.8
2022-08-26T04:35:36.159Z,80.5
2022-08-26T04:41:37.404Z,71.7
2022-08-26T04:47:36.516Z,70.1
2022-08-26T04:53:27.928Z,70.1
2022-08-26T04:59:23.343Z,74.4
2022-08-26T05:05:14.669Z,74.9
2022-08-26T05:11:12.559Z,79.9
2022-08-26T05:17:03.521Z,82.2
2022-08-26T05:22:56.653Z,72.4
2022-08-26T05:28:51.011Z,71
2022-08-26T05:34:49.169Z,70.4
2022-08-26T05:40:45.078Z,76.7
2022-08-26T05:46:37.703Z,81.2
2022-08-26T05:52:31.857Z,83.6
2022-08-26T05:58:23.291Z,83.4
2022-08-26T06:04:16.356Z,82.4
2022-08-26T06:10:36.792Z,86.4
2022-08-26T06:16:30.558Z,77.3
2022-08-26T06:22:28.923Z,75.8
2022-08-26T06:28:20.474Z,76.2
2022-08-26T06:34:15.704Z,63.4
2022-08-26T06:40:08.577Z,73.4
2022-08-26T06:46:01.033Z,74.3
2022-08-26T06:51:54.672Z,74
2022-08-26T06:57:50.541Z,66.9
2022-08-26T07:03:48.164Z,71.2
2022-08-26T07:09:43.302Z,74.9
2022-08-26T07:15:37.419Z,80.5
2022-08-26T07:21:31.455Z,73.2
2022-08-26T07:27:24.477Z,72.6
2022-08-26T07:33:15.547Z,74.3
2022-08-26T07:39:08.961Z,70.1
2022-08-26T07:45:02.638Z,81.8
2022-08-26T07:50:57.135Z,88.9
2022-08-26T07:56:49.244Z,88.5
2022-08-26T08:02:45.968Z,95.1
2022-08-26T08:08:42.105Z,88.6
2022-08-26T08:14:34.132Z,90.1
2022-08-26T08:20:28.389Z,91.9
2022-08-26T08:26:21.466Z,83.1
2022-08-26T08:32:20.120Z,79.7
2022-08-26T08:38:14.110Z,86.7
2022-08-26T08:44:05.003Z,83
2022-08-26T08:49:58.745Z,78.4
2022-08-26T08:55:51.271Z,86.3
2022-08-26T09:01:43.148Z,72.2
2022-08-26T09:07:40.903Z,78
2022-08-26T09:13:34.866Z,78
2022-08-26T09:19:26.431Z,62.4
2022-08-26T09:25:22.082Z,69.7
2022-08-26T09:31:16.376Z,63
2022-08-26T09:37:11.420Z,69.8
2022-08-26T09:43:05.644Z,67.4
2022-08-26T09:48:59.815Z,67.6
2022-08-26T09:54:57.111Z,66.1
2022-08-26T10:00:51.009Z,60.4
2022-08-26T10:06:42.938Z,61.6
2022-08-26T10:12:37.103Z,67.2
2022-08-26T10:18:34.354Z,69.2
2022-08-26T10:24:26.728Z,67.8
2022-08-26T10:30:20.371Z,63.5
2022-08-26T10:36:23.446Z,60.2
2022-08-26T10:42:16.354Z,68.7
2022-08-26T10:48:09.195Z,69.9
2022-08-26T10:54:00.996Z,70.3
2022-08-26T10:59:56.711Z,67.2
2022-08-26T11:05:48.394Z,56.2
2022-08-26T11:11:40.965Z,50.3
2022-08-26T11:17:33.405Z,43.1
2022-08-26T11:23:33.317Z,42.1
2022-08-26T11:29:24.859Z,48.5
2022-08-26T11:35:20.742Z,55.3
2022-08-26T11:41:13.314Z,75.2
2022-08-26T11:47:13.851Z,72
2022-08-26T11:53:04.728Z,54
2022-08-26T11:58:58.226Z,53
2022-08-26T12:04:50.099Z,54.1
2022-08-26T12:10:42.019Z,48.5
2022-08-26T12:16:34.876Z,45
2022-08-26T12:22:28.645Z,44.5
2022-08-26T12:28:26.249Z,40.7
2022-08-26T12:34:28.326Z,39.6
2022-08-26T12:40:22.426Z,52.3
2022-08-26T12:46:14.460Z,45.3
2022-08-26T12:52:05.826Z,29.3
2022-08-26T12:57:57.636Z,23.7
2022-08-26T13:03:50.112Z,21.8
2022-08-26T13:09:45.038Z,20.1
2022-08-26T13:15:37.508Z,26.8
2022-08-26T13:21:28.522Z,25.4
2022-08-26T13:27:41.269Z,24
2022-08-26T13:33:33.066Z,16
2022-08-26T13:39:26.829Z,22.9
2022-08-26T13:45:18.126Z,25.1
2022-08-26T13:51:13.875Z,18.2
2022-08-26T13:57:05.689Z,18.3
2022-08-26T14:02:57.693Z,21.2
2022-08-26T14:08:48.820Z,20.9
2022-08-26T14:14:43.169Z,19.1
2022-08-26T14:20:34.125Z,18.4
2022-08-26T14:26:34.348Z,20.1
2022-08-26T14:32:27.271Z,18.3
2022-08-26T14:38:18.241Z,17.4
2022-08-26T14:44:10.476Z,14.1
2022-08-26T14:50:03.921Z,11.4
2022-08-26T14:55:55.153Z,14.3
2022-08-26T15:01:47.194Z,15.7
2022-08-26T15:07:40.154Z,14.8
2022-08-26T15:13:31.954Z,14.3
2022-08-26T15:19:23.258Z,21.1
2022-08-26T15:25:14.599Z,18.6
2022-08-26T15:37:17.908Z,20.6
2022-08-26T15:43:33.088Z,20.4
2022-08-26T15:49:23.674Z,15.4
2022-08-26T15:55:19.437Z,13.2
2022-08-26T16:01:24.396Z,14.5
2022-08-26T16:07:17.400Z,15.2
2022-08-26T16:13:14.283Z,12.7
2022-08-26T16:19:12.481Z,20.2
2022-08-26T16:25:03.228Z,16.4
2022-08-26T16:30:56.451Z,13.5
2022-08-26T16:36:47.594Z,14.9
2022-08-26T16:42:39.306Z,15.3
2022-08-26T16:48:31.048Z,13
2022-08-26T16:54:22.732Z,13.4
2022-08-26T17:00:13.956Z,15.1
2022-08-26T17:06:05.612Z,15.9
2022-08-26T17:11:57.767Z,12.2
2022-08-26T17:17:49.811Z,12.9
2022-08-26T17:23:43.670Z,10.2
2022-08-26T17:36:20.493Z,9.6
2022-08-26T17:42:54.068Z,11.5
2022-08-26T17:48:55.506Z,11.4
2022-08-26T17:54:59.101Z,12.4
2022-08-26T18:00:49.889Z,13.9
2022-08-26T18:06:40.738Z,12.2
2022-08-26T18:12:36.365Z,17.8
2022-08-26T18:18:26.817Z,10.9
2022-08-26T18:24:19.106Z,12
2022-08-26T18:30:16.557Z,13.4
2022-08-26T18:36:08.956Z,11
2022-08-26T18:41:59.512Z,17.9
2022-08-26T18:47:50.915Z,15.3
2022-08-26T18:53:42.610Z,11.4
2022-08-26T18:59:51.428Z,10.8
2022-08-26T19:05:47.317Z,9.6
2022-08-26T19:11:46.327Z,10.8
2022-08-26T19:17:39.213Z,10.2
2022-08-26T19:23:38.206Z,10.5
2022-08-26T19:29:29.039Z,10.8
2022-08-26T19:35:21.141Z,8.2
2022-08-26T19:41:11.943Z,12.3
2022-08-26T19:47:02.652Z,9.4
2022-08-26T19:52:54.221Z,9.9
2022-08-26T19:58:47.069Z,11.7
2022-08-26T20:04:38.073Z,7.4
2022-08-26T20:10:30.237Z,8.1
2022-08-26T20:16:20.709Z,6.9
2022-08-26T20:22:10.317Z,8.7
2022-08-26T20:28:01.335Z,10.9
2022-08-26T20:33:52.092Z,8.1
2022-08-26T20:39:44.896Z,8.5
2022-08-26T20:45:35.049Z,8.5
2022-08-26T20:51:27.521Z,10.6
2022-08-26T20:57:18.440Z,7.6
2022-08-26T21:03:09.322Z,8.5
2022-08-26T21:09:00.911Z,10
2022-08-26T21:14:54.746Z,11.7
2022-08-26T21:20:45.349Z,11.6
2022-08-26T21:26:37.363Z,9.2
2022-08-26T21:32:29.077Z,7.5
2022-08-26T21:38:19.325Z,9.3
2022-08-26T21:44:12.281Z,9.9
2022-08-26T21:50:04.804Z,10.2
2022-08-26T21:55:57.025Z,6.5
2022-08-26T22:01:48.782Z,8.8
2022-08-26T22:07:40.822Z,11.5
2022-08-26T22:13:31.704Z,8.5
2022-08-26T22:19:26.866Z,7.5
2022-08-26T22:25:17.935Z,8.5
2022-08-26T22:31:08.579Z,8.2
2022-08-26T22:37:00.699Z,10.1
2022-08-26T22:43:03.665Z,10.6
2022-08-26T22:48:58.845Z,8.9
2022-08-26T22:54:51.262Z,19.1
2022-08-26T23:00:43.626Z,19
2022-08-26T23:06:35.002Z,41
2022-08-26T23:12:25.108Z,36
2022-08-26T23:18:16.897Z,33
2022-08-26T23:24:08.204Z,34
2022-08-26T23:30:00.067Z,43.3
2022-08-26T23:35:53.609Z,40.9
2022-08-26T23:41:45.129Z,29.5
2022-08-26T23:47:36.389Z,30.7
2022-08-26T23:53:28.565Z,24.6
2022-08-26T23:59:19.526Z,26
